Portada
METAR-TAF:

METAR-TAF

Aeroports :

Carcassona, França

latitud: 43-13N, longitud: 002-19E, altitud: 130 m

Observació

L'informe es va fer fa 25 minuts, a les 15:00 UTC
Vent 17 kt del Est
Temperatura 20°C
Humitat 35%
Pressió 1024 hPa
Visibilitat 10 km o més
sense núvols per sota de 1500 mi sense presència de cumulonimbus.

METAR: LFMK 191500Z AUTO 10017KT CAVOK 20/04 Q1024 TEMPO 10020G35KT

Hora: 17:25 (15:25 UTC)

Pronòstic

L'informe es va fer fa 1 hora i 25 minuts, a les 14:00 UTC
Pronòstic vàlid del 19 a les 15 UTC al 20 a les 15 UTC
Vent 12 kt del Est
Visibilitat 10 km o més
sense núvols per sota de 1500 mi sense presència de cumulonimbus.
Temporalment
l' 19 a les 15 UTC al 19 a les 19 UTC
Vent 20 kt del Est amb ràfegues de 35 kt
Temporalment
l' 20 a les 09 UTC al 20 a les 15 UTC
Vent 20 kt del Est amb ràfegues de 35 kt

TAF: LFMK 191400Z 1915/2015 10012KT CAVOK TEMPO 1915/1919 10020G35KT TEMPO 2009/2015 10020G35KT

Observacions i pronòstics meteorològics de més de 4000 aeroports (METAR i TAF).

Les estacions disponibles són els punts grocs i vermells al mapa.

Posi el ratolí al punt desitjat per veure el nom de l'estació.

Feu clic per veure les observacions i els pronòstics meteorològics.

Per canviar el mapa: feu clic els botons verds amb una creu de color negre per apropar; al botó verd amb un guió per allunyar la imatge; o en les fletxes verdes per a mapes adjacents.


METAR-TAF: